11:24
Airports
Links
Donate
Help keep this website running!
PayPal
Bitcoin
METAR
KGEY 111053Z AUTO 13005KT 10SM CLR M11/M13 A3041 RMK AO2 SLP343 T11061128 TSNO
Current Weather Conditions at KGEY
VFR 10:53:00 11-12-17
Automated station, no observer
Altimeter:30.41 hg
Temp:-10.6°c 14°f
Dew point:-12.8°c 10°f
Wind:5 knots, 5.8 mph, 3 m/s, from 130°
Visibility:10.0 statute miles
(CLR) Clear
Past METAR reports
VFR 09:53:00 11-12-17
Automated station, no observer
Altimeter:30.41 hg
Temp:-10.6°c 14°f
Dew point:-12.8°c 10°f
Wind:0 knots, 0 mph, 0 m/s,
Variable direction
Visibility:10.0 statute miles
(CLR) Clear
KGEY 110953Z AUTO 00000KT 10SM CLR M11/M13 A3041 RMK AO2 SLP339 T11061128 TSNO
VFR 08:53:00 11-12-17
Automated station, no observer
Altimeter:30.41 hg
Temp:-10.0°c 14°f
Dew point:-12.8°c 10°f
Wind:5 knots, 5.8 mph, 3 m/s, from 300°
Visibility:10.0 statute miles
(CLR) Clear
KGEY 110853Z AUTO 30005KT 10SM CLR M10/M13 A3041 RMK AO2 SLP342 T11001128 53005 TSNO
VFR 07:53:00 11-12-17
Automated station, no observer
Altimeter:30.40 hg
Temp:-7.8°c 19°f
Dew point:-11.7°c 12°f
Wind:3 knots, 3.5 mph, 2 m/s, from 160°
Visibility:10.0 statute miles
(CLR) Clear
KGEY 110753Z AUTO 16003KT 10SM CLR M08/M12 A3040 RMK AO2 SLP338 T10781117 TSNO
VFR 06:53:00 11-12-17
Automated station, no observer
Altimeter:30.41 hg
Temp:-7.8°c 19°f
Dew point:-11.1°c 12°f
Wind:5 knots, 5.8 mph, 3 m/s, from 140°
Visibility:10.0 statute miles
(CLR) Clear
KGEY 110653Z AUTO 14005KT 10SM CLR M08/M11 A3041 RMK AO2 SLP346 T10781111 400611139 TSNO
VFR 05:53:00 11-12-17
Automated station, no observer
Altimeter:30.40 hg
Temp:-8.3°c 18°f
Dew point:-11.7°c 12°f
Wind:3 knots, 3.5 mph, 2 m/s, from 140°
Visibility:10.0 statute miles
(CLR) Clear
KGEY 110553Z AUTO 14003KT 10SM CLR M08/M12 A3040 RMK AO2 SLP348 T10831117 10022 21089 51014 TSNO
TAF
No TAF for KGEY
Forecast at KGEY
No Forecast Reports for KGEY